sensor_id;sensor_type;location;lat;lon;timestamp;P1;durP1;ratioP1;P2;durP2;ratioP2
3643;SDS011;1838;50.742;7.158;2024-02-21T00:00:52;14.83;;;5.90;;
3643;SDS011;1838;50.742;7.158;2024-02-21T00:03:17;14.20;;;5.80;;
3643;SDS011;1838;50.742;7.158;2024-02-21T00:05:43;15.70;;;5.87;;
3643;SDS011;1838;50.742;7.158;2024-02-21T00:08:09;14.30;;;5.70;;
3643;SDS011;1838;50.742;7.158;2024-02-21T00:10:34;14.90;;;6.17;;
3643;SDS011;1838;50.742;7.158;2024-02-21T00:13:00;19.70;;;6.57;;
3643;SDS011;1838;50.742;7.158;2024-02-21T00:15:26;16.57;;;6.17;;
3643;SDS011;1838;50.742;7.158;2024-02-21T00:17:52;17.20;;;6.17;;
3643;SDS011;1838;50.742;7.158;2024-02-21T00:20:18;15.80;;;6.00;;
3643;SDS011;1838;50.742;7.158;2024-02-21T00:22:44;10.67;;;5.20;;
3643;SDS011;1838;50.742;7.158;2024-02-21T00:25:10;12.43;;;5.23;;
3643;SDS011;1838;50.742;7.158;2024-02-21T00:27:35;20.00;;;6.00;;
3643;SDS011;1838;50.742;7.158;2024-02-21T00:30:01;16.97;;;5.83;;
3643;SDS011;1838;50.742;7.158;2024-02-21T00:32:27;20.13;;;6.90;;
3643;SDS011;1838;50.742;7.158;2024-02-21T00:34:52;16.80;;;6.53;;
3643;SDS011;1838;50.742;7.158;2024-02-21T00:37:18;20.60;;;8.13;;
3643;SDS011;1838;50.742;7.158;2024-02-21T00:39:43;19.23;;;6.27;;
3643;SDS011;1838;50.742;7.158;2024-02-21T00:42:09;13.77;;;5.70;;
3643;SDS011;1838;50.742;7.158;2024-02-21T00:44:34;18.60;;;5.90;;
3643;SDS011;1838;50.742;7.158;2024-02-21T00:47:00;15.30;;;7.33;;
3643;SDS011;1838;50.742;7.158;2024-02-21T00:49:25;23.90;;;5.40;;
3643;SDS011;1838;50.742;7.158;2024-02-21T00:51:51;19.50;;;7.30;;
3643;SDS011;1838;50.742;7.158;2024-02-21T00:54:16;17.57;;;7.23;;
3643;SDS011;1838;50.742;7.158;2024-02-21T00:56:42;12.53;;;6.60;;
3643;SDS011;1838;50.742;7.158;2024-02-21T00:59:08;14.80;;;6.23;;
3643;SDS011;1838;50.742;7.158;2024-02-21T01:01:33;15.30;;;6.60;;
3643;SDS011;1838;50.742;7.158;2024-02-21T01:03:59;13.40;;;5.77;;
3643;SDS011;1838;50.742;7.158;2024-02-21T01:06:25;9.90;;;5.60;;
3643;SDS011;1838;50.742;7.158;2024-02-21T01:08:50;11.43;;;5.60;;
3643;SDS011;1838;50.742;7.158;2024-02-21T01:11:16;13.97;;;6.30;;
3643;SDS011;1838;50.742;7.158;2024-02-21T01:13:42;19.50;;;6.90;;
3643;SDS011;1838;50.742;7.158;2024-02-21T01:16:08;10.60;;;5.60;;
3643;SDS011;1838;50.742;7.158;2024-02-21T01:18:34;15.80;;;6.40;;
3643;SDS011;1838;50.742;7.158;2024-02-21T01:20:59;19.37;;;6.20;;
3643;SDS011;1838;50.742;7.158;2024-02-21T01:23:25;14.57;;;5.23;;
3643;SDS011;1838;50.742;7.158;2024-02-21T01:25:51;14.70;;;5.50;;
3643;SDS011;1838;50.742;7.158;2024-02-21T01:28:17;25.10;;;6.67;;
3643;SDS011;1838;50.742;7.158;2024-02-21T01:30:45;13.40;;;5.83;;
3643;SDS011;1838;50.742;7.158;2024-02-21T01:33:11;14.30;;;5.50;;
3643;SDS011;1838;50.742;7.158;2024-02-21T01:35:36;15.03;;;6.43;;
3643;SDS011;1838;50.742;7.158;2024-02-21T01:38:02;15.70;;;6.10;;
3643;SDS011;1838;50.742;7.158;2024-02-21T01:40:28;14.30;;;6.60;;
3643;SDS011;1838;50.742;7.158;2024-02-21T01:42:55;12.27;;;6.13;;
3643;SDS011;1838;50.742;7.158;2024-02-21T01:45:20;13.60;;;5.77;;
3643;SDS011;1838;50.742;7.158;2024-02-21T01:47:46;11.70;;;5.10;;
3643;SDS011;1838;50.742;7.158;2024-02-21T01:50:13;16.13;;;7.00;;
3643;SDS011;1838;50.742;7.158;2024-02-21T01:52:40;17.40;;;6.80;;
3643;SDS011;1838;50.742;7.158;2024-02-21T01:55:08;17.33;;;6.60;;
3643;SDS011;1838;50.742;7.158;2024-02-21T01:57:35;9.57;;;6.03;;
3643;SDS011;1838;50.742;7.158;2024-02-21T02:00:01;14.20;;;6.13;;
3643;SDS011;1838;50.742;7.158;2024-02-21T02:02:27;9.67;;;5.67;;
3643;SDS011;1838;50.742;7.158;2024-02-21T02:04:54;14.00;;;5.50;;
3643;SDS011;1838;50.742;7.158;2024-02-21T02:07:19;12.77;;;5.37;;
3643;SDS011;1838;50.742;7.158;2024-02-21T02:09:45;16.13;;;5.33;;
3643;SDS011;1838;50.742;7.158;2024-02-21T02:12:10;12.70;;;5.90;;
3643;SDS011;1838;50.742;7.158;2024-02-21T02:14:36;22.07;;;6.90;;
3643;SDS011;1838;50.742;7.158;2024-02-21T02:17:02;18.53;;;7.43;;
3643;SDS011;1838;50.742;7.158;2024-02-21T02:19:27;10.83;;;4.83;;
3643;SDS011;1838;50.742;7.158;2024-02-21T02:21:54;18.17;;;5.70;;
3643;SDS011;1838;50.742;7.158;2024-02-21T02:24:26;14.50;;;5.27;;
3643;SDS011;1838;50.742;7.158;2024-02-21T02:26:51;11.27;;;5.27;;
3643;SDS011;1838;50.742;7.158;2024-02-21T02:29:17;11.20;;;5.30;;
3643;SDS011;1838;50.742;7.158;2024-02-21T02:31:43;12.80;;;6.37;;
3643;SDS011;1838;50.742;7.158;2024-02-21T02:34:09;17.30;;;6.17;;
3643;SDS011;1838;50.742;7.158;2024-02-21T02:36:35;16.33;;;6.17;;
3643;SDS011;1838;50.742;7.158;2024-02-21T02:39:01;10.63;;;5.20;;
3643;SDS011;1838;50.742;7.158;2024-02-21T02:41:26;12.87;;;5.97;;
3643;SDS011;1838;50.742;7.158;2024-02-21T02:43:52;14.13;;;5.53;;
3643;SDS011;1838;50.742;7.158;2024-02-21T02:46:17;16.23;;;6.60;;
3643;SDS011;1838;50.742;7.158;2024-02-21T02:48:43;15.30;;;5.70;;
3643;SDS011;1838;50.742;7.158;2024-02-21T02:51:09;13.33;;;5.47;;
3643;SDS011;1838;50.742;7.158;2024-02-21T02:53:35;12.43;;;5.40;;
3643;SDS011;1838;50.742;7.158;2024-02-21T02:56:02;12.57;;;5.20;;
3643;SDS011;1838;50.742;7.158;2024-02-21T02:58:27;14.40;;;5.10;;
3643;SDS011;1838;50.742;7.158;2024-02-21T03:00:53;16.90;;;5.67;;
3643;SDS011;1838;50.742;7.158;2024-02-21T03:03:32;17.85;;;5.53;;
3643;SDS011;1838;50.742;7.158;2024-02-21T03:05:58;13.40;;;5.17;;
3643;SDS011;1838;50.742;7.158;2024-02-21T03:08:24;21.57;;;6.47;;
3643;SDS011;1838;50.742;7.158;2024-02-21T03:10:49;13.90;;;5.80;;
3643;SDS011;1838;50.742;7.158;2024-02-21T03:13:15;19.17;;;5.60;;
3643;SDS011;1838;50.742;7.158;2024-02-21T03:15:40;12.93;;;4.87;;
3643;SDS011;1838;50.742;7.158;2024-02-21T03:18:06;15.60;;;5.80;;
3643;SDS011;1838;50.742;7.158;2024-02-21T03:20:31;11.47;;;5.03;;
3643;SDS011;1838;50.742;7.158;2024-02-21T03:22:57;17.50;;;4.87;;
3643;SDS011;1838;50.742;7.158;2024-02-21T03:25:22;13.90;;;5.43;;
3643;SDS011;1838;50.742;7.158;2024-02-21T03:27:48;16.33;;;6.07;;
3643;SDS011;1838;50.742;7.158;2024-02-21T03:30:14;11.23;;;5.03;;
3643;SDS011;1838;50.742;7.158;2024-02-21T03:32:39;18.17;;;5.93;;
3643;SDS011;1838;50.742;7.158;2024-02-21T03:35:05;10.07;;;4.97;;
3643;SDS011;1838;50.742;7.158;2024-02-21T03:37:31;16.77;;;5.40;;
3643;SDS011;1838;50.742;7.158;2024-02-21T03:39:56;19.43;;;5.60;;
3643;SDS011;1838;50.742;7.158;2024-02-21T03:42:22;15.20;;;6.17;;
3643;SDS011;1838;50.742;7.158;2024-02-21T03:44:47;18.90;;;5.43;;
3643;SDS011;1838;50.742;7.158;2024-02-21T03:47:13;21.67;;;5.47;;
3643;SDS011;1838;50.742;7.158;2024-02-21T03:49:39;10.70;;;5.20;;
3643;SDS011;1838;50.742;7.158;2024-02-21T03:52:04;18.50;;;6.57;;
3643;SDS011;1838;50.742;7.158;2024-02-21T03:54:30;10.67;;;5.17;;
3643;SDS011;1838;50.742;7.158;2024-02-21T03:56:55;25.80;;;5.97;;
3643;SDS011;1838;50.742;7.158;2024-02-21T03:59:22;21.70;;;6.13;;
3643;SDS011;1838;50.742;7.158;2024-02-21T04:01:51;13.20;;;6.10;;
3643;SDS011;1838;50.742;7.158;2024-02-21T04:04:17;9.63;;;4.63;;
3643;SDS011;1838;50.742;7.158;2024-02-21T04:06:49;18.10;;;5.13;;
3643;SDS011;1838;50.742;7.158;2024-02-21T04:09:15;21.53;;;6.30;;
3643;SDS011;1838;50.742;7.158;2024-02-21T04:11:41;15.60;;;6.10;;
3643;SDS011;1838;50.742;7.158;2024-02-21T04:14:07;17.23;;;6.27;;
3643;SDS011;1838;50.742;7.158;2024-02-21T04:16:32;13.67;;;5.47;;
3643;SDS011;1838;50.742;7.158;2024-02-21T04:18:59;12.80;;;4.80;;
3643;SDS011;1838;50.742;7.158;2024-02-21T04:21:24;14.27;;;5.30;;
3643;SDS011;1838;50.742;7.158;2024-02-21T04:23:50;15.77;;;5.07;;
3643;SDS011;1838;50.742;7.158;2024-02-21T04:26:16;18.37;;;6.43;;
3643;SDS011;1838;50.742;7.158;2024-02-21T04:28:41;14.40;;;5.80;;
3643;SDS011;1838;50.742;7.158;2024-02-21T04:31:09;12.93;;;5.10;;
3643;SDS011;1838;50.742;7.158;2024-02-21T04:33:35;12.83;;;4.43;;
3643;SDS011;1838;50.742;7.158;2024-02-21T04:36:00;16.27;;;4.60;;
3643;SDS011;1838;50.742;7.158;2024-02-21T04:38:27;16.63;;;5.47;;
3643;SDS011;1838;50.742;7.158;2024-02-21T04:40:53;16.20;;;5.13;;
3643;SDS011;1838;50.742;7.158;2024-02-21T04:43:20;15.13;;;4.70;;
3643;SDS011;1838;50.742;7.158;2024-02-21T04:45:45;12.90;;;6.40;;
3643;SDS011;1838;50.742;7.158;2024-02-21T04:48:11;9.27;;;5.13;;
3643;SDS011;1838;50.742;7.158;2024-02-21T04:50:36;16.60;;;6.93;;
3643;SDS011;1838;50.742;7.158;2024-02-21T04:53:02;10.00;;;4.90;;
3643;SDS011;1838;50.742;7.158;2024-02-21T04:55:27;13.60;;;4.77;;
3643;SDS011;1838;50.742;7.158;2024-02-21T04:57:53;17.23;;;5.83;;
3643;SDS011;1838;50.742;7.158;2024-02-21T05:00:19;12.87;;;6.10;;
3643;SDS011;1838;50.742;7.158;2024-02-21T05:02:44;17.63;;;6.67;;
3643;SDS011;1838;50.742;7.158;2024-02-21T05:05:10;13.80;;;5.80;;
3643;SDS011;1838;50.742;7.158;2024-02-21T05:07:35;17.93;;;7.57;;
3643;SDS011;1838;50.742;7.158;2024-02-21T05:10:01;19.53;;;6.13;;
3643;SDS011;1838;50.742;7.158;2024-02-21T05:12:26;15.23;;;4.60;;
3643;SDS011;1838;50.742;7.158;2024-02-21T05:14:52;21.43;;;6.27;;
3643;SDS011;1838;50.742;7.158;2024-02-21T05:17:18;18.07;;;4.90;;
3643;SDS011;1838;50.742;7.158;2024-02-21T05:19:43;11.30;;;4.93;;
3643;SDS011;1838;50.742;7.158;2024-02-21T05:22:09;12.20;;;4.60;;
3643;SDS011;1838;50.742;7.158;2024-02-21T05:24:34;8.87;;;3.90;;
3643;SDS011;1838;50.742;7.158;2024-02-21T05:27:00;7.53;;;4.23;;
3643;SDS011;1838;50.742;7.158;2024-02-21T05:29:25;13.80;;;4.70;;
3643;SDS011;1838;50.742;7.158;2024-02-21T05:34:19;16.33;;;5.87;;
3643;SDS011;1838;50.742;7.158;2024-02-21T05:36:45;22.30;;;4.57;;
3643;SDS011;1838;50.742;7.158;2024-02-21T05:39:11;14.47;;;4.10;;
3643;SDS011;1838;50.742;7.158;2024-02-21T05:41:37;13.13;;;4.10;;
3643;SDS011;1838;50.742;7.158;2024-02-21T05:44:03;11.70;;;4.07;;
3643;SDS011;1838;50.742;7.158;2024-02-21T05:46:29;12.83;;;4.50;;
3643;SDS011;1838;50.742;7.158;2024-02-21T05:48:54;9.40;;;3.90;;
3643;SDS011;1838;50.742;7.158;2024-02-21T05:51:20;10.67;;;4.40;;
3643;SDS011;1838;50.742;7.158;2024-02-21T05:53:45;12.30;;;4.10;;
3643;SDS011;1838;50.742;7.158;2024-02-21T05:56:11;13.53;;;4.13;;
3643;SDS011;1838;50.742;7.158;2024-02-21T05:58:38;15.57;;;4.13;;
3643;SDS011;1838;50.742;7.158;2024-02-21T06:01:03;15.23;;;4.60;;
3643;SDS011;1838;50.742;7.158;2024-02-21T06:03:31;12.33;;;4.27;;
3643;SDS011;1838;50.742;7.158;2024-02-21T06:05:57;10.77;;;4.50;;
3643;SDS011;1838;50.742;7.158;2024-02-21T06:08:26;10.97;;;4.43;;
3643;SDS011;1838;50.742;7.158;2024-02-21T06:10:52;10.50;;;4.77;;
3643;SDS011;1838;50.742;7.158;2024-02-21T06:13:19;13.03;;;4.87;;
3643;SDS011;1838;50.742;7.158;2024-02-21T06:15:46;11.50;;;4.07;;
3643;SDS011;1838;50.742;7.158;2024-02-21T06:18:12;15.43;;;4.03;;
3643;SDS011;1838;50.742;7.158;2024-02-21T06:20:38;8.47;;;3.93;;
3643;SDS011;1838;50.742;7.158;2024-02-21T06:23:05;14.67;;;5.90;;
3643;SDS011;1838;50.742;7.158;2024-02-21T06:25:31;12.63;;;5.00;;
3643;SDS011;1838;50.742;7.158;2024-02-21T06:27:56;13.17;;;4.40;;
3643;SDS011;1838;50.742;7.158;2024-02-21T06:30:22;17.43;;;4.20;;
3643;SDS011;1838;50.742;7.158;2024-02-21T06:32:47;9.23;;;5.03;;
3643;SDS011;1838;50.742;7.158;2024-02-21T06:35:13;7.53;;;4.10;;
3643;SDS011;1838;50.742;7.158;2024-02-21T06:37:38;14.83;;;4.80;;
3643;SDS011;1838;50.742;7.158;2024-02-21T06:40:04;13.43;;;4.33;;
3643;SDS011;1838;50.742;7.158;2024-02-21T06:42:30;21.37;;;6.40;;
3643;SDS011;1838;50.742;7.158;2024-02-21T06:44:56;6.93;;;4.07;;
3643;SDS011;1838;50.742;7.158;2024-02-21T06:47:22;9.80;;;4.60;;
3643;SDS011;1838;50.742;7.158;2024-02-21T06:49:50;7.60;;;4.17;;
3643;SDS011;1838;50.742;7.158;2024-02-21T06:52:19;11.43;;;4.40;;
3643;SDS011;1838;50.742;7.158;2024-02-21T06:54:45;13.93;;;4.67;;
3643;SDS011;1838;50.742;7.158;2024-02-21T06:57:12;9.43;;;4.43;;
3643;SDS011;1838;50.742;7.158;2024-02-21T06:59:38;12.20;;;4.53;;
3643;SDS011;1838;50.742;7.158;2024-02-21T07:02:04;9.40;;;4.97;;
3643;SDS011;1838;50.742;7.158;2024-02-21T07:04:29;14.63;;;5.20;;
3643;SDS011;1838;50.742;7.158;2024-02-21T07:06:55;17.47;;;4.50;;
3643;SDS011;1838;50.742;7.158;2024-02-21T07:09:20;17.73;;;5.30;;
3643;SDS011;1838;50.742;7.158;2024-02-21T07:11:46;12.57;;;4.10;;
3643;SDS011;1838;50.742;7.158;2024-02-21T07:14:13;14.43;;;4.67;;
3643;SDS011;1838;50.742;7.158;2024-02-21T07:16:40;9.10;;;3.83;;
3643;SDS011;1838;50.742;7.158;2024-02-21T07:19:05;14.53;;;3.87;;
3643;SDS011;1838;50.742;7.158;2024-02-21T07:21:31;17.13;;;4.83;;
3643;SDS011;1838;50.742;7.158;2024-02-21T07:23:57;9.90;;;4.00;;
3643;SDS011;1838;50.742;7.158;2024-02-21T07:26:22;11.10;;;4.70;;
3643;SDS011;1838;50.742;7.158;2024-02-21T07:28:48;16.57;;;5.27;;
3643;SDS011;1838;50.742;7.158;2024-02-21T07:31:13;12.77;;;4.23;;
3643;SDS011;1838;50.742;7.158;2024-02-21T07:33:39;17.40;;;5.00;;
3643;SDS011;1838;50.742;7.158;2024-02-21T07:36:07;16.87;;;5.43;;
3643;SDS011;1838;50.742;7.158;2024-02-21T07:38:35;11.53;;;5.27;;
3643;SDS011;1838;50.742;7.158;2024-02-21T07:41:00;10.17;;;5.53;;
3643;SDS011;1838;50.742;7.158;2024-02-21T07:43:26;9.90;;;3.70;;
3643;SDS011;1838;50.742;7.158;2024-02-21T07:45:52;12.63;;;4.67;;
3643;SDS011;1838;50.742;7.158;2024-02-21T07:48:21;11.53;;;4.40;;
3643;SDS011;1838;50.742;7.158;2024-02-21T07:50:51;15.63;;;5.33;;
3643;SDS011;1838;50.742;7.158;2024-02-21T07:53:17;14.87;;;5.00;;
3643;SDS011;1838;50.742;7.158;2024-02-21T07:55:42;11.70;;;5.33;;
3643;SDS011;1838;50.742;7.158;2024-02-21T07:58:08;15.90;;;5.47;;
3643;SDS011;1838;50.742;7.158;2024-02-21T08:00:33;15.53;;;5.20;;
3643;SDS011;1838;50.742;7.158;2024-02-21T08:02:59;23.43;;;5.50;;
3643;SDS011;1838;50.742;7.158;2024-02-21T08:05:24;20.37;;;6.07;;
3643;SDS011;1838;50.742;7.158;2024-02-21T08:07:50;12.33;;;5.30;;
3643;SDS011;1838;50.742;7.158;2024-02-21T08:10:16;14.13;;;6.03;;
3643;SDS011;1838;50.742;7.158;2024-02-21T08:12:41;11.83;;;5.27;;
3643;SDS011;1838;50.742;7.158;2024-02-21T08:15:07;12.23;;;5.10;;
3643;SDS011;1838;50.742;7.158;2024-02-21T08:17:35;13.60;;;5.17;;
3643;SDS011;1838;50.742;7.158;2024-02-21T08:20:01;9.23;;;4.87;;
3643;SDS011;1838;50.742;7.158;2024-02-21T08:22:27;13.50;;;5.10;;
3643;SDS011;1838;50.742;7.158;2024-02-21T08:24:53;24.57;;;6.43;;
3643;SDS011;1838;50.742;7.158;2024-02-21T08:27:18;12.33;;;4.53;;
3643;SDS011;1838;50.742;7.158;2024-02-21T08:29:44;21.53;;;5.63;;
3643;SDS011;1838;50.742;7.158;2024-02-21T08:32:10;10.90;;;5.27;;
3643;SDS011;1838;50.742;7.158;2024-02-21T08:34:35;16.43;;;5.90;;
3643;SDS011;1838;50.742;7.158;2024-02-21T08:37:01;14.33;;;5.23;;
3643;SDS011;1838;50.742;7.158;2024-02-21T08:39:26;10.43;;;4.73;;
3643;SDS011;1838;50.742;7.158;2024-02-21T08:41:53;17.07;;;4.60;;
3643;SDS011;1838;50.742;7.158;2024-02-21T08:44:19;15.07;;;5.20;;
3643;SDS011;1838;50.742;7.158;2024-02-21T08:46:44;19.00;;;4.77;;
3643;SDS011;1838;50.742;7.158;2024-02-21T08:49:12;12.10;;;4.70;;
3643;SDS011;1838;50.742;7.158;2024-02-21T08:51:38;13.60;;;5.33;;
3643;SDS011;1838;50.742;7.158;2024-02-21T08:54:04;12.80;;;6.07;;
3643;SDS011;1838;50.742;7.158;2024-02-21T08:56:30;11.53;;;5.90;;
3643;SDS011;1838;50.742;7.158;2024-02-21T08:58:56;12.77;;;4.30;;
3643;SDS011;1838;50.742;7.158;2024-02-21T09:01:22;9.30;;;5.17;;
3643;SDS011;1838;50.742;7.158;2024-02-21T09:03:48;10.60;;;4.60;;
3643;SDS011;1838;50.742;7.158;2024-02-21T09:06:18;16.53;;;5.20;;
3643;SDS011;1838;50.742;7.158;2024-02-21T09:08:44;15.50;;;5.10;;
3643;SDS011;1838;50.742;7.158;2024-02-21T09:11:10;14.80;;;4.37;;
3643;SDS011;1838;50.742;7.158;2024-02-21T09:13:35;18.63;;;5.73;;
3643;SDS011;1838;50.742;7.158;2024-02-21T09:16:01;11.33;;;4.70;;
3643;SDS011;1838;50.742;7.158;2024-02-21T09:18:26;16.77;;;4.67;;
3643;SDS011;1838;50.742;7.158;2024-02-21T09:20:52;9.07;;;5.10;;
3643;SDS011;1838;50.742;7.158;2024-02-21T09:23:17;9.90;;;4.77;;
3643;SDS011;1838;50.742;7.158;2024-02-21T09:25:44;10.80;;;4.57;;
3643;SDS011;1838;50.742;7.158;2024-02-21T09:28:10;12.47;;;4.90;;
3643;SDS011;1838;50.742;7.158;2024-02-21T09:30:38;14.37;;;5.17;;
3643;SDS011;1838;50.742;7.158;2024-02-21T09:33:03;13.03;;;5.60;;
3643;SDS011;1838;50.742;7.158;2024-02-21T09:35:30;10.27;;;5.50;;
3643;SDS011;1838;50.742;7.158;2024-02-21T09:37:58;11.70;;;4.80;;
3643;SDS011;1838;50.742;7.158;2024-02-21T09:40:24;12.47;;;4.60;;
3643;SDS011;1838;50.742;7.158;2024-02-21T09:42:52;12.70;;;4.80;;
3643;SDS011;1838;50.742;7.158;2024-02-21T09:45:28;13.60;;;5.17;;
3643;SDS011;1838;50.742;7.158;2024-02-21T09:48:01;13.53;;;5.80;;
3643;SDS011;1838;50.742;7.158;2024-02-21T09:50:48;12.27;;;4.50;;
3643;SDS011;1838;50.742;7.158;2024-02-21T09:53:15;11.77;;;4.63;;
3643;SDS011;1838;50.742;7.158;2024-02-21T09:55:41;12.37;;;5.20;;
3643;SDS011;1838;50.742;7.158;2024-02-21T09:58:08;10.40;;;4.90;;
3643;SDS011;1838;50.742;7.158;2024-02-21T10:00:35;12.60;;;4.53;;
3643;SDS011;1838;50.742;7.158;2024-02-21T10:03:01;14.17;;;4.83;;
3643;SDS011;1838;50.742;7.158;2024-02-21T10:05:34;11.50;;;4.47;;
3643;SDS011;1838;50.742;7.158;2024-02-21T10:08:00;8.73;;;3.90;;
3643;SDS011;1838;50.742;7.158;2024-02-21T10:10:26;12.13;;;4.00;;
3643;SDS011;1838;50.742;7.158;2024-02-21T10:12:52;14.77;;;4.50;;
3643;SDS011;1838;50.742;7.158;2024-02-21T10:15:23;12.23;;;5.20;;
3643;SDS011;1838;50.742;7.158;2024-02-21T10:17:49;8.47;;;4.17;;
3643;SDS011;1838;50.742;7.158;2024-02-21T10:20:25;16.50;;;4.57;;
3643;SDS011;1838;50.742;7.158;2024-02-21T10:23:04;9.20;;;4.57;;
3643;SDS011;1838;50.742;7.158;2024-02-21T10:25:34;16.87;;;4.93;;
3643;SDS011;1838;50.742;7.158;2024-02-21T10:28:01;14.80;;;4.97;;
3643;SDS011;1838;50.742;7.158;2024-02-21T10:30:28;9.50;;;5.20;;
3643;SDS011;1838;50.742;7.158;2024-02-21T10:32:53;9.93;;;3.80;;
3643;SDS011;1838;50.742;7.158;2024-02-21T10:35:29;16.00;;;4.77;;
3643;SDS011;1838;50.742;7.158;2024-02-21T10:37:56;7.13;;;4.30;;
3643;SDS011;1838;50.742;7.158;2024-02-21T10:40:28;5.97;;;4.33;;
3643;SDS011;1838;50.742;7.158;2024-02-21T10:43:00;11.33;;;4.90;;
3643;SDS011;1838;50.742;7.158;2024-02-21T10:45:30;11.00;;;4.80;;
3643;SDS011;1838;50.742;7.158;2024-02-21T10:48:01;12.80;;;3.67;;
3643;SDS011;1838;50.742;7.158;2024-02-21T10:50:39;9.60;;;3.67;;
3643;SDS011;1838;50.742;7.158;2024-02-21T10:53:20;9.77;;;3.90;;
3643;SDS011;1838;50.742;7.158;2024-02-21T10:56:39;13.57;;;4.73;;
3643;SDS011;1838;50.742;7.158;2024-02-21T10:58:48;12.63;;;4.50;;
3643;SDS011;1838;50.742;7.158;2024-02-21T11:01:14;13.90;;;4.60;;
3643;SDS011;1838;50.742;7.158;2024-02-21T11:03:41;19.10;;;5.00;;
3643;SDS011;1838;50.742;7.158;2024-02-21T11:06:09;11.80;;;4.73;;
3643;SDS011;1838;50.742;7.158;2024-02-21T11:08:36;20.17;;;5.10;;
3643;SDS011;1838;50.742;7.158;2024-02-21T11:11:02;17.27;;;4.93;;
3643;SDS011;1838;50.742;7.158;2024-02-21T11:13:35;12.07;;;4.70;;
3643;SDS011;1838;50.742;7.158;2024-02-21T11:16:11;12.33;;;3.80;;
3643;SDS011;1838;50.742;7.158;2024-02-21T11:18:45;6.50;;;3.50;;
3643;SDS011;1838;50.742;7.158;2024-02-21T11:21:11;6.30;;;3.43;;
3643;SDS011;1838;50.742;7.158;2024-02-21T11:23:36;14.30;;;4.60;;
3643;SDS011;1838;50.742;7.158;2024-02-21T11:26:08;12.90;;;3.47;;
3643;SDS011;1838;50.742;7.158;2024-02-21T11:28:35;11.50;;;3.70;;
3643;SDS011;1838;50.742;7.158;2024-02-21T11:31:13;7.57;;;3.27;;
3643;SDS011;1838;50.742;7.158;2024-02-21T11:33:39;8.53;;;3.77;;
3643;SDS011;1838;50.742;7.158;2024-02-21T11:36:07;13.97;;;3.47;;
3643;SDS011;1838;50.742;7.158;2024-02-21T11:38:33;13.33;;;3.37;;
3643;SDS011;1838;50.742;7.158;2024-02-21T11:40:58;16.10;;;4.53;;
3643;SDS011;1838;50.742;7.158;2024-02-21T11:43:24;6.70;;;3.03;;
3643;SDS011;1838;50.742;7.158;2024-02-21T11:45:50;8.70;;;4.10;;
3643;SDS011;1838;50.742;7.158;2024-02-21T11:48:23;8.60;;;3.73;;
3643;SDS011;1838;50.742;7.158;2024-02-21T11:50:53;9.93;;;4.60;;
3643;SDS011;1838;50.742;7.158;2024-02-21T11:53:20;6.00;;;3.40;;
3643;SDS011;1838;50.742;7.158;2024-02-21T11:55:45;8.90;;;4.13;;
3643;SDS011;1838;50.742;7.158;2024-02-21T11:58:11;10.03;;;3.80;;
3643;SDS011;1838;50.742;7.158;2024-02-21T12:00:37;7.80;;;3.60;;
3643;SDS011;1838;50.742;7.158;2024-02-21T12:03:03;9.63;;;3.97;;
3643;SDS011;1838;50.742;7.158;2024-02-21T12:05:32;10.13;;;4.27;;
3643;SDS011;1838;50.742;7.158;2024-02-21T12:07:57;8.63;;;3.13;;
3643;SDS011;1838;50.742;7.158;2024-02-21T12:10:23;11.27;;;3.57;;
3643;SDS011;1838;50.742;7.158;2024-02-21T12:12:51;12.90;;;3.40;;
3643;SDS011;1838;50.742;7.158;2024-02-21T12:15:17;8.37;;;3.50;;
3643;SDS011;1838;50.742;7.158;2024-02-21T12:17:43;9.70;;;3.07;;
3643;SDS011;1838;50.742;7.158;2024-02-21T12:20:09;11.10;;;3.37;;
3643;SDS011;1838;50.742;7.158;2024-02-21T12:22:36;6.13;;;2.73;;
3643;SDS011;1838;50.742;7.158;2024-02-21T12:25:21;4.70;;;3.40;;
3643;SDS011;1838;50.742;7.158;2024-02-21T12:27:48;10.03;;;5.00;;
3643;SDS011;1838;50.742;7.158;2024-02-21T12:30:14;7.30;;;3.53;;
3643;SDS011;1838;50.742;7.158;2024-02-21T12:32:40;7.13;;;3.50;;
3643;SDS011;1838;50.742;7.158;2024-02-21T12:35:06;9.57;;;3.73;;
3643;SDS011;1838;50.742;7.158;2024-02-21T12:37:32;15.13;;;4.37;;
3643;SDS011;1838;50.742;7.158;2024-02-21T12:39:58;13.47;;;4.63;;
3643;SDS011;1838;50.742;7.158;2024-02-21T12:42:23;11.57;;;3.73;;
3643;SDS011;1838;50.742;7.158;2024-02-21T12:44:50;6.20;;;3.33;;
3643;SDS011;1838;50.742;7.158;2024-02-21T12:47:17;6.93;;;3.90;;
3643;SDS011;1838;50.742;7.158;2024-02-21T12:49:44;10.10;;;3.90;;
3643;SDS011;1838;50.742;7.158;2024-02-21T12:52:10;13.10;;;4.27;;
3643;SDS011;1838;50.742;7.158;2024-02-21T12:54:36;14.93;;;4.07;;
3643;SDS011;1838;50.742;7.158;2024-02-21T12:57:01;5.13;;;3.83;;
3643;SDS011;1838;50.742;7.158;2024-02-21T12:59:28;11.40;;;4.20;;
3643;SDS011;1838;50.742;7.158;2024-02-21T13:01:54;8.40;;;3.87;;
3643;SDS011;1838;50.742;7.158;2024-02-21T13:04:20;17.77;;;5.80;;
3643;SDS011;1838;50.742;7.158;2024-02-21T13:06:47;7.70;;;3.63;;
3643;SDS011;1838;50.742;7.158;2024-02-21T13:09:14;10.30;;;3.90;;
3643;SDS011;1838;50.742;7.158;2024-02-21T13:11:40;10.17;;;4.00;;
3643;SDS011;1838;50.742;7.158;2024-02-21T13:14:06;10.10;;;4.40;;
3643;SDS011;1838;50.742;7.158;2024-02-21T13:16:32;9.23;;;4.00;;
3643;SDS011;1838;50.742;7.158;2024-02-21T13:19:04;9.57;;;3.93;;
3643;SDS011;1838;50.742;7.158;2024-02-21T13:21:35;10.30;;;4.67;;
3643;SDS011;1838;50.742;7.158;2024-02-21T13:24:01;7.10;;;4.30;;
3643;SDS011;1838;50.742;7.158;2024-02-21T13:26:27;13.63;;;4.50;;
3643;SDS011;1838;50.742;7.158;2024-02-21T13:28:52;12.70;;;3.93;;
3643;SDS011;1838;50.742;7.158;2024-02-21T13:31:18;10.47;;;4.30;;
3643;SDS011;1838;50.742;7.158;2024-02-21T13:33:44;10.63;;;4.70;;
3643;SDS011;1838;50.742;7.158;2024-02-21T13:36:10;11.63;;;4.03;;
3643;SDS011;1838;50.742;7.158;2024-02-21T13:38:35;11.40;;;3.57;;
3643;SDS011;1838;50.742;7.158;2024-02-21T13:41:01;5.00;;;2.93;;
3643;SDS011;1838;50.742;7.158;2024-02-21T13:43:27;9.57;;;4.20;;
3643;SDS011;1838;50.742;7.158;2024-02-21T13:45:56;9.70;;;3.50;;
3643;SDS011;1838;50.742;7.158;2024-02-21T13:48:23;5.93;;;3.60;;
3643;SDS011;1838;50.742;7.158;2024-02-21T13:50:49;7.67;;;4.20;;
3643;SDS011;1838;50.742;7.158;2024-02-21T13:53:15;12.23;;;4.60;;
3643;SDS011;1838;50.742;7.158;2024-02-21T13:55:43;13.70;;;4.13;;
3643;SDS011;1838;50.742;7.158;2024-02-21T13:58:11;4.17;;;3.07;;
3643;SDS011;1838;50.742;7.158;2024-02-21T14:00:37;12.97;;;3.67;;
3643;SDS011;1838;50.742;7.158;2024-02-21T14:03:02;9.23;;;3.90;;
3643;SDS011;1838;50.742;7.158;2024-02-21T14:05:28;8.23;;;3.60;;
3643;SDS011;1838;50.742;7.158;2024-02-21T14:07:54;12.60;;;3.03;;
3643;SDS011;1838;50.742;7.158;2024-02-21T14:10:20;7.87;;;3.50;;
3643;SDS011;1838;50.742;7.158;2024-02-21T14:12:45;8.67;;;3.77;;
3643;SDS011;1838;50.742;7.158;2024-02-21T14:15:12;9.20;;;3.73;;
3643;SDS011;1838;50.742;7.158;2024-02-21T14:17:38;7.40;;;3.20;;
3643;SDS011;1838;50.742;7.158;2024-02-21T14:20:04;4.90;;;3.23;;
3643;SDS011;1838;50.742;7.158;2024-02-21T14:22:31;8.57;;;3.40;;
3643;SDS011;1838;50.742;7.158;2024-02-21T14:24:56;7.03;;;3.50;;
3643;SDS011;1838;50.742;7.158;2024-02-21T14:27:22;13.53;;;4.10;;
3643;SDS011;1838;50.742;7.158;2024-02-21T14:29:48;10.57;;;3.07;;
3643;SDS011;1838;50.742;7.158;2024-02-21T14:32:13;10.03;;;3.97;;
3643;SDS011;1838;50.742;7.158;2024-02-21T14:34:39;12.23;;;4.00;;
3643;SDS011;1838;50.742;7.158;2024-02-21T14:37:04;13.90;;;5.40;;
3643;SDS011;1838;50.742;7.158;2024-02-21T14:39:30;6.40;;;3.80;;
3643;SDS011;1838;50.742;7.158;2024-02-21T14:41:57;10.97;;;4.03;;
3643;SDS011;1838;50.742;7.158;2024-02-21T14:44:22;6.20;;;3.00;;
3643;SDS011;1838;50.742;7.158;2024-02-21T14:46:48;4.90;;;2.87;;
3643;SDS011;1838;50.742;7.158;2024-02-21T14:49:14;9.50;;;3.07;;
3643;SDS011;1838;50.742;7.158;2024-02-21T14:51:39;10.13;;;3.57;;
3643;SDS011;1838;50.742;7.158;2024-02-21T14:54:05;6.87;;;3.43;;
3643;SDS011;1838;50.742;7.158;2024-02-21T14:56:30;7.27;;;3.27;;
3643;SDS011;1838;50.742;7.158;2024-02-21T14:58:56;8.50;;;3.23;;
3643;SDS011;1838;50.742;7.158;2024-02-21T15:01:23;10.17;;;2.97;;
3643;SDS011;1838;50.742;7.158;2024-02-21T15:03:48;7.35;;;3.00;;